createdAt,value
2023-04-04T00:02:18.358Z,4.40
2023-04-04T00:05:33.889Z,4.20
2023-04-04T00:08:42.402Z,3.20
2023-04-04T00:11:39.665Z,3.60
2023-04-04T00:14:13.934Z,3.60
2023-04-04T00:16:48.888Z,3.50
2023-04-04T00:20:11.812Z,3.40
2023-04-04T00:23:07.279Z,2.50
2023-04-04T00:26:05.294Z,2.40
2023-04-04T00:29:26.571Z,2.90
2023-04-04T00:32:20.991Z,3.20
2023-04-04T00:35:00.556Z,2.90
2023-04-04T00:37:28.088Z,3.10
2023-04-04T00:40:15.409Z,3.40
2023-04-04T00:42:57.644Z,3.60
2023-04-04T00:46:11.252Z,3.40
2023-04-04T00:48:56.582Z,3.20
2023-04-04T00:52:07.721Z,3.50
2023-04-04T00:55:02.067Z,3.40
2023-04-04T00:57:51.853Z,3.10
2023-04-04T01:01:22.839Z,2.10
2023-04-04T01:04:17.285Z,2.50
2023-04-04T01:06:53.586Z,2.50
2023-04-04T01:10:05.233Z,2.50
2023-04-04T01:13:10.502Z,2.70
2023-04-04T01:16:03.299Z,2.90
2023-04-04T01:18:44.484Z,2.90
2023-04-04T01:21:18.822Z,2.70
2023-04-04T01:24:27.703Z,2.50
2023-04-04T01:27:40.476Z,2.70
2023-04-04T01:30:16.762Z,3.00
2023-04-04T01:33:10.752Z,3.30
2023-04-04T01:35:53.072Z,3.60
2023-04-04T01:39:17.400Z,2.90
2023-04-04T01:42:24.691Z,3.40
2023-04-04T01:45:09.443Z,3.10
2023-04-04T01:48:17.438Z,2.30
2023-04-04T01:51:03.514Z,3.10
2023-04-04T01:53:48.491Z,2.80
2023-04-04T01:56:59.316Z,2.80
2023-04-04T02:00:07.334Z,3.40
2023-04-04T02:03:12.903Z,2.90
2023-04-04T02:05:50.856Z,3.60
2023-04-04T02:08:21.544Z,3.60
2023-04-04T02:11:33.459Z,4.10
2023-04-04T02:14:50.491Z,3.80
2023-04-04T02:17:45.673Z,3.70
2023-04-04T02:20:38.706Z,3.90
2023-04-04T02:23:22.405Z,3.50
2023-04-04T02:26:13.012Z,3.50
2023-04-04T02:29:34.253Z,3.20
2023-04-04T02:32:39.729Z,3.20
2023-04-04T02:35:36.056Z,2.10
2023-04-04T02:38:18.648Z,2.70
2023-04-04T02:40:51.847Z,2.70
2023-04-04T02:43:39.962Z,5.50
2023-04-04T02:46:40.111Z,3.50
2023-04-04T02:49:47.337Z,6.60
2023-04-04T02:52:25.841Z,8.80
2023-04-04T02:55:08.490Z,5.80
2023-04-04T02:57:42.258Z,5.10
2023-04-04T03:00:32.687Z,5.30
2023-04-04T03:03:11.478Z,4.20
2023-04-04T03:05:49.594Z,4.20
2023-04-04T03:09:13.858Z,4.10
2023-04-04T03:12:24.056Z,4.20
2023-04-04T03:15:23.879Z,2.60
2023-04-04T03:20:44.167Z,3.20
2023-04-04T03:23:17.051Z,3.70
2023-04-04T03:26:03.242Z,5.40
2023-04-04T03:29:04.295Z,5.30
2023-04-04T03:32:35.734Z,6.50
2023-04-04T03:35:37.273Z,4.10
2023-04-04T03:38:26.629Z,4.70
2023-04-04T03:41:17.499Z,4.80
2023-04-04T03:43:45.454Z,3.60
2023-04-04T03:46:15.822Z,3.40
2023-04-04T03:48:44.176Z,4.00
2023-04-04T03:51:23.989Z,4.50
2023-04-04T03:53:54.465Z,4.50
2023-04-04T03:56:32.142Z,2.70
2023-04-04T03:59:00.667Z,3.30
2023-04-04T04:01:40.533Z,3.50
2023-04-04T04:04:13.777Z,3.90
2023-04-04T04:07:23.485Z,5.70
2023-04-04T04:14:33.119Z,4.20
2023-04-04T04:18:20.926Z,4.40
2023-04-04T04:21:59.011Z,4.60
2023-04-04T04:25:02.485Z,4.00
2023-04-04T04:28:17.729Z,3.70
2023-04-04T04:31:11.587Z,3.30
2023-04-04T04:33:51.887Z,4.00
2023-04-04T04:36:55.763Z,3.80
2023-04-04T04:40:21.083Z,4.20
2023-04-04T04:43:17.379Z,2.80
2023-04-04T04:46:27.334Z,2.70
2023-04-04T04:49:38.533Z,3.00
2023-04-04T04:53:05.242Z,2.90
2023-04-04T04:55:39.849Z,2.70
2023-04-04T04:59:03.193Z,3.30
2023-04-04T05:01:39.798Z,2.90
2023-04-04T05:04:54.818Z,4.00
2023-04-04T05:08:11.436Z,3.80
2023-04-04T05:12:00.358Z,4.30
2023-04-04T05:15:18.296Z,3.30
2023-04-04T05:17:50.707Z,2.80
2023-04-04T05:20:33.704Z,3.30
2023-04-04T05:23:48.638Z,3.40
2023-04-04T05:26:30.301Z,3.10
2023-04-04T05:29:28.089Z,3.20
2023-04-04T05:32:13.137Z,2.70
2023-04-04T05:35:10.440Z,3.20
2023-04-04T05:37:42.958Z,3.00
2023-04-04T05:40:23.401Z,3.00
2023-04-04T05:43:08.334Z,2.90
2023-04-04T05:45:50.556Z,3.20
2023-04-04T05:48:53.245Z,3.90
2023-04-04T05:51:39.083Z,3.00
2023-04-04T05:54:30.198Z,4.70
2023-04-04T05:57:05.110Z,4.00
2023-04-04T05:59:51.738Z,5.50
2023-04-04T06:02:19.974Z,5.00
2023-04-04T06:05:02.589Z,8.40
2023-04-04T06:07:39.654Z,6.70
2023-04-04T06:10:09.351Z,4.90
2023-04-04T06:12:38.050Z,11.40
2023-04-04T06:15:11.291Z,7.70
2023-04-04T06:17:40.057Z,11.50
2023-04-04T06:20:13.263Z,9.60
2023-04-04T06:22:49.936Z,8.60
2023-04-04T06:25:18.021Z,6.30
2023-04-04T06:27:48.514Z,7.30
2023-04-04T06:30:22.980Z,6.20
2023-04-04T06:32:53.107Z,6.70
2023-04-04T06:35:28.011Z,6.50
2023-04-04T06:38:02.827Z,5.80
2023-04-04T06:40:46.443Z,5.80
2023-04-04T06:43:31.010Z,6.30
2023-04-04T06:46:06.726Z,6.40
2023-04-04T06:48:54.988Z,5.30
2023-04-04T06:51:30.049Z,4.80
2023-04-04T06:53:57.406Z,5.20
2023-04-04T06:56:28.193Z,5.20
2023-04-04T06:58:55.340Z,4.10
2023-04-04T07:01:25.324Z,4.20
2023-04-04T07:03:54.452Z,4.40
2023-04-04T07:06:25.751Z,4.80
2023-04-04T07:08:53.742Z,4.40
2023-04-04T07:11:23.911Z,3.80
2023-04-04T07:13:50.966Z,3.90
2023-04-04T07:16:18.121Z,5.20
2023-04-04T07:18:54.463Z,4.50
2023-04-04T07:21:24.923Z,5.40
2023-04-04T07:24:08.138Z,4.20
2023-04-04T07:26:45.051Z,3.50
2023-04-04T07:29:25.887Z,4.20
2023-04-04T07:32:03.322Z,3.00
2023-04-04T07:34:34.492Z,3.40
2023-04-04T07:37:15.942Z,3.30
2023-04-04T07:39:43.267Z,3.20
2023-04-04T07:42:12.841Z,4.10
2023-04-04T07:44:50.766Z,5.20
2023-04-04T07:47:18.326Z,4.70
2023-04-04T07:49:45.813Z,3.60
2023-04-04T07:52:22.437Z,3.30
2023-04-04T07:54:49.744Z,6.00
2023-04-04T07:57:16.828Z,5.00
2023-04-04T07:59:44.764Z,3.70
2023-04-04T08:02:15.323Z,3.90
2023-04-04T08:04:42.798Z,3.20
2023-04-04T08:07:09.986Z,5.00
2023-04-04T08:09:40.803Z,5.20
2023-04-04T08:12:13.925Z,3.20
2023-04-04T08:14:41.554Z,4.70
2023-04-04T08:17:08.757Z,6.10
2023-04-04T08:19:37.365Z,6.50
2023-04-04T08:22:05.494Z,5.70
2023-04-04T08:24:32.768Z,3.40
2023-04-04T08:27:15.590Z,3.20
2023-04-04T08:29:46.930Z,2.80
2023-04-04T08:32:17.827Z,3.50
2023-04-04T08:34:51.194Z,5.20
2023-04-04T08:37:21.461Z,3.20
2023-04-04T08:39:48.528Z,2.70
2023-04-04T08:42:17.771Z,3.70
2023-04-04T08:44:45.535Z,2.80
2023-04-04T08:47:13.501Z,2.70
2023-04-04T08:49:44.149Z,3.10
2023-04-04T08:52:12.192Z,3.20
2023-04-04T08:54:43.461Z,2.70
2023-04-04T08:57:10.892Z,3.20
2023-04-04T08:59:38.155Z,3.60
2023-04-04T09:02:16.369Z,3.70
2023-04-04T09:04:51.383Z,3.00
2023-04-04T09:07:22.862Z,4.80
2023-04-04T09:09:50.476Z,5.50
2023-04-04T09:12:22.434Z,6.80
2023-04-04T09:14:52.066Z,5.40
2023-04-04T09:17:19.992Z,4.70
2023-04-04T09:19:47.588Z,4.00
2023-04-04T09:22:14.640Z,3.00
2023-04-04T09:24:42.649Z,3.50
2023-04-04T09:27:10.866Z,3.00
2023-04-04T09:29:41.699Z,3.50
2023-04-04T09:34:36.621Z,4.20
2023-04-04T09:37:06.752Z,3.10
2023-04-04T09:39:36.375Z,4.00
2023-04-04T09:42:08.626Z,2.80
2023-04-04T09:44:36.997Z,2.90
2023-04-04T09:50:00.613Z,2.80
2023-04-04T09:52:28.179Z,3.80
2023-04-04T09:54:58.352Z,2.80
2023-04-04T09:57:33.027Z,3.10
2023-04-04T10:00:03.694Z,5.50
2023-04-04T10:02:39.409Z,4.10
2023-04-04T10:05:10.451Z,2.10
2023-04-04T10:07:47.411Z,3.40
2023-04-04T10:10:15.625Z,2.60
2023-04-04T10:12:45.678Z,2.30
2023-04-04T10:15:15.337Z,3.30
2023-04-04T10:17:44.129Z,2.90
2023-04-04T10:20:14.468Z,2.50
2023-04-04T10:27:45.684Z,4.60
2023-04-04T10:30:13.784Z,3.90
2023-04-04T10:32:57.566Z,2.90
2023-04-04T10:35:24.639Z,3.30
2023-04-04T10:37:59.114Z,3.40
2023-04-04T10:40:29.120Z,2.60
2023-04-04T10:42:56.036Z,4.90
2023-04-04T10:45:23.297Z,4.30
2023-04-04T10:47:51.970Z,4.50
2023-04-04T10:50:20.699Z,3.40
2023-04-04T10:52:48.519Z,3.80
2023-04-04T10:55:16.503Z,3.50
2023-04-04T10:57:47.720Z,3.00
2023-04-04T11:00:20.345Z,2.50
2023-04-04T11:02:54.833Z,2.80
2023-04-04T11:05:40.942Z,2.60
2023-04-04T11:13:13.775Z,2.90
2023-04-04T11:16:01.371Z,2.80
2023-04-04T11:18:33.651Z,2.50
2023-04-04T11:21:02.258Z,2.40
2023-04-04T11:23:47.562Z,2.90
2023-04-04T11:26:32.493Z,3.30
2023-04-04T11:29:03.294Z,2.50
2023-04-04T11:31:34.194Z,4.00
2023-04-04T11:34:07.203Z,3.60
2023-04-04T11:36:36.557Z,3.90
2023-04-04T11:39:04.807Z,6.70
2023-04-04T11:41:44.567Z,9.90
2023-04-04T11:44:11.432Z,7.10
2023-04-04T11:46:38.820Z,4.00
2023-04-04T11:49:05.587Z,6.60
2023-04-04T11:51:32.421Z,4.90
2023-04-04T11:54:08.951Z,4.20
2023-04-04T11:56:38.023Z,9.40
2023-04-04T11:59:11.469Z,5.60
2023-04-04T12:01:40.850Z,7.40
2023-04-04T12:04:07.361Z,3.10
2023-04-04T12:06:34.899Z,3.00
2023-04-04T12:09:06.179Z,2.80
2023-04-04T12:11:35.824Z,2.50
2023-04-04T12:14:17.785Z,3.00
2023-04-04T12:16:51.728Z,2.70
2023-04-04T12:19:18.648Z,2.90
2023-04-04T12:21:57.675Z,3.20
2023-04-04T12:24:26.543Z,3.70
2023-04-04T12:26:53.016Z,3.70
2023-04-04T12:29:22.158Z,2.70
2023-04-04T12:31:49.039Z,2.70
2023-04-04T12:34:20.308Z,3.30
2023-04-04T12:36:56.984Z,3.40
2023-04-04T12:39:25.359Z,4.00
2023-04-04T12:42:05.416Z,3.80
2023-04-04T12:44:41.813Z,3.30
2023-04-04T12:47:10.078Z,4.30
2023-04-04T12:49:42.458Z,3.60
2023-04-04T12:52:22.520Z,3.90
2023-04-04T12:54:59.086Z,3.00
2023-04-04T12:57:32.195Z,2.80
2023-04-04T12:59:58.841Z,2.70
2023-04-04T13:02:25.634Z,2.60
2023-04-04T13:04:56.642Z,5.00
2023-04-04T13:07:27.413Z,12.60
2023-04-04T13:12:23.020Z,7.40
2023-04-04T13:15:00.158Z,11.20
2023-04-04T13:17:42.988Z,7.00
2023-04-04T13:20:11.419Z,5.00
2023-04-04T13:22:39.474Z,7.60
2023-04-04T13:25:06.687Z,3.10
2023-04-04T13:27:34.712Z,3.60
2023-04-04T13:30:01.176Z,3.40
2023-04-04T13:32:28.629Z,3.70
2023-04-04T13:34:56.362Z,2.90
2023-04-04T13:37:25.970Z,2.70
2023-04-04T13:39:52.485Z,3.90
2023-04-04T13:42:18.808Z,3.20
2023-04-04T13:44:45.496Z,3.40
2023-04-04T13:47:12.159Z,3.30
2023-04-04T13:49:49.254Z,3.00
2023-04-04T13:52:28.860Z,3.60
2023-04-04T13:54:55.345Z,4.10
2023-04-04T13:57:35.349Z,4.20
2023-04-04T14:00:09.495Z,4.90
2023-04-04T14:02:42.837Z,4.50
2023-04-04T14:05:29.775Z,4.30
2023-04-04T14:08:01.641Z,4.20
2023-04-04T14:10:34.141Z,4.60
2023-04-04T14:13:01.134Z,4.20
2023-04-04T14:15:28.337Z,4.30
2023-04-04T14:17:55.155Z,3.30
2023-04-04T14:20:25.156Z,3.60
2023-04-04T14:23:02.338Z,3.20
2023-04-04T14:25:33.778Z,3.90
2023-04-04T14:28:02.770Z,4.00
2023-04-04T14:30:29.584Z,4.40
2023-04-04T14:33:07.246Z,5.70
2023-04-04T14:35:35.248Z,4.00
2023-04-04T14:38:03.019Z,3.90
2023-04-04T14:40:31.701Z,4.30
2023-04-04T14:42:58.402Z,3.70
2023-04-04T14:45:27.922Z,5.60
2023-04-04T14:47:54.938Z,6.30
2023-04-04T14:50:21.873Z,5.60
2023-04-04T14:52:55.638Z,5.10
2023-04-04T14:55:22.350Z,6.40
2023-04-04T14:58:02.533Z,5.20
2023-04-04T15:00:30.425Z,5.30
2023-04-04T15:02:58.871Z,5.60
2023-04-04T15:05:28.186Z,5.30
2023-04-04T15:07:55.341Z,5.20
2023-04-04T15:10:25.044Z,5.70
2023-04-04T15:12:52.280Z,5.60
2023-04-04T15:15:23.946Z,4.80
2023-04-04T15:17:50.858Z,4.90
2023-04-04T15:20:25.957Z,4.30
2023-04-04T15:22:52.521Z,4.00
2023-04-04T15:25:18.909Z,3.70
2023-04-04T15:27:47.140Z,4.30
2023-04-04T15:30:14.952Z,4.20
2023-04-04T15:32:42.229Z,3.80
2023-04-04T15:35:18.211Z,5.20
2023-04-04T15:37:45.150Z,3.80
2023-04-04T15:40:12.463Z,4.90
2023-04-04T15:42:39.441Z,4.10
2023-04-04T15:45:07.880Z,3.60
2023-04-04T15:47:34.470Z,4.60
2023-04-04T15:50:01.571Z,4.00
2023-04-04T15:52:28.165Z,4.70
2023-04-04T15:54:57.044Z,3.70
2023-04-04T15:57:24.884Z,4.40
2023-04-04T15:59:53.289Z,4.80
2023-04-04T16:02:20.279Z,3.90
2023-04-04T16:04:47.113Z,3.90
2023-04-04T16:07:13.401Z,3.70
2023-04-04T16:09:42.467Z,3.30
2023-04-04T16:12:09.109Z,4.40
2023-04-04T16:14:35.560Z,4.50
2023-04-04T16:17:07.243Z,10.00
2023-04-04T16:19:33.855Z,10.20
2023-04-04T16:22:00.352Z,5.20
2023-04-04T16:24:29.834Z,4.70
2023-04-04T16:26:59.082Z,5.60
2023-04-04T16:29:30.394Z,5.00
2023-04-04T16:31:57.702Z,4.20
2023-04-04T16:34:24.046Z,4.50
2023-04-04T16:36:52.461Z,4.50
2023-04-04T16:39:22.495Z,4.60
2023-04-04T16:41:48.851Z,4.10
2023-04-04T16:44:27.262Z,5.90
2023-04-04T16:46:53.762Z,5.00
2023-04-04T16:49:20.350Z,6.90
2023-04-04T16:51:51.919Z,6.70
2023-04-04T16:54:37.595Z,7.90
2023-04-04T16:57:09.132Z,6.70
2023-04-04T16:59:36.536Z,7.90
2023-04-04T17:02:07.544Z,5.90
2023-04-04T17:04:53.560Z,4.80
2023-04-04T17:07:27.465Z,5.60
2023-04-04T17:09:54.200Z,4.90
2023-04-04T17:12:22.462Z,6.60
2023-04-04T17:14:53.000Z,5.20
2023-04-04T17:17:19.816Z,5.10
2023-04-04T17:19:52.073Z,4.60
2023-04-04T17:22:41.579Z,5.70
2023-04-04T17:25:11.169Z,6.40
2023-04-04T17:27:40.964Z,8.40
2023-04-04T17:30:20.643Z,6.40
2023-04-04T17:32:51.815Z,6.60
2023-04-04T17:35:18.234Z,7.90
2023-04-04T17:37:54.723Z,9.30
2023-04-04T17:40:21.563Z,7.80
2023-04-04T17:42:47.961Z,8.10
2023-04-04T17:45:14.671Z,8.10
2023-04-04T17:47:45.357Z,8.20
2023-04-04T17:50:15.235Z,7.90
2023-04-04T17:52:41.812Z,7.00
2023-04-04T17:55:22.302Z,6.30
2023-04-04T17:57:51.904Z,7.10
2023-04-04T18:00:19.366Z,7.30
2023-04-04T18:02:55.657Z,7.60
2023-04-04T18:05:35.596Z,7.60
2023-04-04T18:08:14.801Z,7.70
2023-04-04T18:10:44.456Z,8.40
2023-04-04T18:16:27.630Z,7.20
2023-04-04T18:19:07.265Z,8.10
2023-04-04T18:21:34.003Z,6.30
2023-04-04T18:24:04.729Z,6.20
2023-04-04T18:26:31.455Z,6.10
2023-04-04T18:29:38.145Z,6.50
2023-04-04T18:32:04.617Z,6.60
2023-04-04T18:34:34.404Z,6.00
2023-04-04T18:37:00.923Z,5.90
2023-04-04T18:39:28.346Z,6.70
2023-04-04T18:41:54.693Z,6.80
2023-04-04T18:44:23.890Z,7.20
2023-04-04T18:46:52.925Z,4.60
2023-04-04T18:49:50.673Z,6.00
2023-04-04T18:52:17.243Z,5.60
2023-04-04T18:54:44.609Z,6.80
2023-04-04T18:57:47.814Z,6.90
2023-04-04T19:00:23.561Z,5.60
2023-04-04T19:02:54.680Z,7.00
2023-04-04T19:05:31.145Z,7.50
2023-04-04T19:07:57.704Z,6.20
2023-04-04T19:10:24.130Z,7.20
2023-04-04T19:12:56.298Z,5.90
2023-04-04T19:15:22.887Z,6.10
2023-04-04T19:17:49.385Z,6.50
2023-04-04T19:20:16.173Z,7.00
2023-04-04T19:22:42.641Z,6.80
2023-04-04T19:25:09.598Z,6.50
2023-04-04T19:27:36.472Z,5.60
2023-04-04T19:30:12.009Z,6.30
2023-04-04T19:32:42.363Z,9.70
2023-04-04T19:35:19.414Z,12.10
2023-04-04T19:37:46.130Z,10.40
2023-04-04T19:40:15.034Z,8.70
2023-04-04T19:42:45.019Z,9.00
2023-04-04T19:45:12.504Z,5.80
2023-04-04T19:47:38.957Z,9.40
2023-04-04T19:50:05.978Z,9.10
2023-04-04T19:52:32.534Z,12.60
2023-04-04T19:54:58.949Z,10.30
2023-04-04T19:57:26.740Z,7.20
2023-04-04T20:00:12.740Z,8.40
2023-04-04T20:02:47.555Z,5.80
2023-04-04T20:05:31.440Z,6.80
2023-04-04T20:07:59.454Z,7.80
2023-04-04T20:10:36.404Z,7.40
2023-04-04T20:13:09.889Z,8.00
2023-04-04T20:15:46.793Z,7.30
2023-04-04T20:18:22.949Z,7.60
2023-04-04T20:20:56.728Z,8.00
2023-04-04T20:23:25.433Z,7.40
2023-04-04T20:25:51.930Z,9.10
2023-04-04T20:28:26.963Z,6.30
2023-04-04T20:30:56.013Z,6.60
2023-04-04T20:33:38.732Z,8.70
2023-04-04T20:36:12.951Z,7.50
2023-04-04T20:38:40.690Z,6.70
2023-04-04T20:41:25.832Z,6.40
2023-04-04T20:43:56.778Z,7.10
2023-04-04T20:46:25.217Z,6.30
2023-04-04T20:48:55.642Z,6.50
2023-04-04T20:51:31.944Z,5.60
2023-04-04T20:54:02.033Z,5.20
2023-04-04T20:56:42.883Z,5.20
2023-04-04T20:59:35.765Z,6.80
2023-04-04T21:02:16.616Z,5.70
2023-04-04T21:04:45.030Z,6.40
2023-04-04T21:07:34.929Z,6.20
2023-04-04T21:10:01.287Z,9.50
2023-04-04T21:12:27.656Z,7.50
2023-04-04T21:14:54.160Z,4.90
2023-04-04T21:17:23.103Z,4.90
2023-04-04T21:19:55.723Z,5.50
2023-04-04T21:22:23.587Z,5.90
2023-04-04T21:24:50.121Z,6.40
2023-04-04T21:27:32.425Z,7.20
2023-04-04T21:29:59.020Z,6.50
2023-04-04T21:32:25.932Z,7.80
2023-04-04T21:34:52.752Z,5.90
2023-04-04T21:37:20.773Z,5.90
2023-04-04T21:39:50.633Z,5.60
2023-04-04T21:42:18.022Z,6.30
2023-04-04T21:44:44.361Z,10.30
2023-04-04T21:47:11.149Z,9.20
2023-04-04T21:49:37.541Z,7.30
2023-04-04T21:52:06.319Z,6.60
2023-04-04T21:54:35.555Z,6.70
2023-04-04T21:57:02.425Z,4.70
2023-04-04T21:59:28.898Z,4.30
2023-04-04T22:01:55.360Z,4.10
2023-04-04T22:04:25.080Z,4.30
2023-04-04T22:06:54.598Z,3.90
2023-04-04T22:09:42.912Z,4.20
2023-04-04T22:13:31.590Z,4.50
2023-04-04T22:17:31.824Z,4.10
2023-04-04T22:21:11.136Z,4.50
2023-04-04T22:24:17.410Z,4.30
2023-04-04T22:28:07.556Z,3.20
2023-04-04T22:32:03.824Z,3.20
2023-04-04T22:35:50.386Z,5.30
2023-04-04T22:39:57.781Z,4.30
2023-04-04T22:43:55.092Z,5.00
2023-04-04T22:46:39.706Z,4.90
2023-04-04T22:50:10.116Z,4.80
2023-04-04T22:54:11.107Z,4.10
2023-04-04T22:57:59.872Z,4.90
2023-04-04T23:01:27.169Z,5.40
2023-04-04T23:05:09.014Z,4.70
2023-04-04T23:09:17.686Z,5.00
2023-04-04T23:13:25.152Z,4.80
2023-04-04T23:17:33.612Z,4.70
2023-04-04T23:21:34.935Z,3.60
2023-04-04T23:25:41.107Z,3.80
2023-04-04T23:29:48.606Z,4.80
2023-04-04T23:33:44.944Z,5.60
2023-04-04T23:37:53.498Z,5.90
2023-04-04T23:42:00.982Z,7.00
2023-04-04T23:46:08.656Z,6.30
2023-04-04T23:49:56.204Z,3.70
2023-04-04T23:53:43.655Z,3.90
2023-04-04T23:57:51.054Z,4.80
